METAR Data
IDs: Format: Raw Decoded Include TAF

Data at: 0440 UTC 20 Oct 2018

PALH 200353Z 22003KT 10SM -RA OVC032 07/04 A2908 RMK AO2 SLP847 P0002 T00670044
PALH 200253Z 28004KT 10SM -RA OVC046 07/04 A2903 RMK AO2 SLP833 P0002 60002 T00670044 53028
PALH 200153Z 21004KT 10SM -RA OVC070 07/04 A2900 RMK AO2 RAE01B20 SLP822 P0000 T00720039
PALH 200053Z 19006KT 10SM -RA OVC075 07/03 A2898 RMK AO2 RAB39 SLP813 P0000 T00720033
PALH 192353Z 21007KT 10SM OVC080 08/03 A2895 RMK AO2 SLP804 60000 T00780028 10089 20061 53015
PALH 192253Z 35007KT 10SM OVC080 08/02 A2893 RMK AO2 SLP798 T00830017
PALH 192153Z 34009KT 10SM BKN065 OVC080 08/01 A2891 RMK AO2 SLP791 T00780006
PALH 192053Z 35009KT 10SM BKN065 OVC080 08/00 A2891 RMK AO2 RAB12E24 SLP789 P0000 60000 T00780000 56016
PALH 191953Z 03015G22KT 10SM BKN070 OVC080 08/01 A2891 RMK AO2 PK WND 04026/1923 RAB07E21 SLP790 P0000 T00830011
PALH 191853Z 00000KT 10SM SCT060 OVC075 07/01 A2892 RMK AO2 RAE1756 SLP795 P0000 T00670011
PALH 191753Z 36011KT 10SM -RA BKN055 OVC070 07/00 A2895 RMK AO2 RAB20 SLP805 P0000 60000 T00720000 10072 20056 56062
PALH 191653Z 35012G18KT 10SM BKN065 BKN090 OVC110 07/00 A2900 RMK AO2 SLP820 T00670000
PALH 191553Z 35013G19KT 10SM CLR 06/01 A2905 RMK AO2 PRESFR SLP838 T00610006
PALH 191453Z 35015KT 10SM CLR 06/01 A2914 RMK AO2 PRESFR SLP867 T00560006 56099
PALH 191353Z 02009G15KT 10SM SCT110 06/01 A2924 RMK AO2 PRESFR SLP904 T00560011
PALH 191253Z 36011G20KT 10SM BKN110 06/02 A2932 RMK AO2 PRESFR SLP930 T00610017
PALH 191153Z 35007KT 10SM OVC090 06/02 A2943 RMK AO2 PRESFR SLP966 70001 T00610022 10067 20056 58061
PALH 191053Z 01005KT 10SM CLR 06/03 A2950 RMK AO2 PRESFR SLP988 T00610028
PALH 190953Z 05004KT 10SM BKN080 06/03 A2956 RMK AO2 SLP012 T00610033
PALH 190853Z 33004KT 10SM BKN075 OVC095 06/04 A2961 RMK AO2 SLP028 T00610039 400940056 58045
PALH 190753Z 00000KT 10SM OVC075 07/04 A2967 RMK AO2 SLP047 T00670039
PALH 190653Z 04005KT 10SM OVC080 07/03 A2970 RMK AO2 SLP058 T00670033
PALH 190553Z 04003KT 10SM OVC070 07/05 A2974 RMK AO2 SLP073 T00670050 10089 20061 56029
PALH 190453Z 36003KT 10SM SCT110 07/05 A2977 RMK AO2 SLP082 T00670050
PALH 190353Z 00000KT 10SM FEW080 07/06 A2980 RMK AO2 SLP091 T00670056
PALH 190253Z 00000KT 10SM FEW120 07/05 A2983 RMK AO2 SLP102 T00670050 58017
PALH 190153Z 33005KT 10SM SCT120 08/05 A2985 RMK AO2 SLP109 T00780050
PALH 190053Z 32004KT 10SM OVC110 09/04 A2987 RMK AO2 SLP115 T00890044
PALH 182353Z 34006KT 10SM OVC100 09/04 A2988 RMK AO2 SLP119 60001 T00890039 10089 20067 58011
PALH 182253Z 35005KT 10SM OVC100 09/04 A2990 RMK AO2 RAE2156 SLP125 P0000 T00890039
PALH 182153Z 36004KT 10SM -RA FEW070 OVC095 08/04 A2991 RMK AO2 RAB09E23B39 SLP129 P0000 T00830044
PALH 182053Z VRB03KT 10SM BKN080 OVC090 08/04 A2991 RMK AO2 RAB19E28 SLP130 P0000 60001 T00780044 51010
PALH 181953Z 03008KT 10SM SCT055 OVC075 07/04 A2991 RMK AO2 RAB18E49 SLP127 P0001 T00720044
PALH 181853Z 01005KT 10SM BKN070 OVC085 07/04 A2990 RMK AO2 RAB22E53 SLP124 P0000 T00670039
PALH 181753Z 35003KT 10SM SCT050 OVC075 07/04 A2988 RMK AO2 RAB25E43 SLP119 P0000 60000 T00670039 10083 20056 53011
PALH 181653Z 01004KT 10SM FEW070 BKN090 06/04 A2987 RMK AO2 SLP114 T00610044